Des Moines, Iowa
Current Conditions -  °F | °C
As of 5:54 PM on Monday 22 Dec 2014 (Local Time) from KDSM Reporting Station
Light Rain Light Rain  
Wind Chill:   Ceiling: 300
Heat Index:   Visibility: 2.5mi
Dew Point:   Wind: 7mph
Humidity: 93%   Direction: 110°ESE
Pressure: 29.46"   Gusts: NA
Location:  41.59°N, 93.61°W
Report Text: KDSM 222354Z 11006KT 2 1/2SM -RA BR OVC003 04/03 A2946 RMK AO2 SFC VIS 3 SLP981 P0003 60008 T00440033 10050 20044 56003
Loading
Personal Weather Stations






























Interactive Weather Map New forecast layout! Learn more

10-Day Weather Forecast

Advertisements
Track Severe Weather on mobile